sensor_id;sensor_type;location;lat;lon;timestamp;pressure;altitude;pressure_sealevel;temperature;humidity
20021;BME280;10171;42.694;23.318;2022-07-30T00:00:14;95069.19;;;25.70;nan
20021;BME280;10171;42.694;23.318;2022-07-30T00:02:41;95067.94;;;25.66;nan
20021;BME280;10171;42.694;23.318;2022-07-30T00:05:07;95073.41;;;25.71;nan
20021;BME280;10171;42.694;23.318;2022-07-30T00:07:32;95068.34;;;25.70;nan
20021;BME280;10171;42.694;23.318;2022-07-30T00:10:00;95062.78;;;25.79;nan
20021;BME280;10171;42.694;23.318;2022-07-30T00:12:26;95060.88;;;25.60;nan
20021;BME280;10171;42.694;23.318;2022-07-30T00:14:51;95064.72;;;25.64;nan
20021;BME280;10171;42.694;23.318;2022-07-30T00:17:17;95056.41;;;25.61;nan
20021;BME280;10171;42.694;23.318;2022-07-30T00:19:42;95056.19;;;25.56;nan
20021;BME280;10171;42.694;23.318;2022-07-30T00:22:08;95061.63;;;25.54;nan
20021;BME280;10171;42.694;23.318;2022-07-30T00:24:33;95066.28;;;25.59;nan
20021;BME280;10171;42.694;23.318;2022-07-30T00:26:59;95058.88;;;25.62;nan
20021;BME280;10171;42.694;23.318;2022-07-30T00:29:24;95054.88;;;25.73;nan
20021;BME280;10171;42.694;23.318;2022-07-30T00:31:50;95055.47;;;25.68;nan
20021;BME280;10171;42.694;23.318;2022-07-30T00:34:16;95066.56;;;25.70;nan
20021;BME280;10171;42.694;23.318;2022-07-30T00:36:41;95060.50;;;25.70;nan
20021;BME280;10171;42.694;23.318;2022-07-30T00:39:07;95068.34;;;25.63;nan
20021;BME280;10171;42.694;23.318;2022-07-30T00:41:33;95061.50;;;25.69;nan
20021;BME280;10171;42.694;23.318;2022-07-30T00:44:02;95062.16;;;25.77;nan
20021;BME280;10171;42.694;23.318;2022-07-30T00:46:27;95060.88;;;25.67;nan
20021;BME280;10171;42.694;23.318;2022-07-30T00:48:53;95056.00;;;25.57;nan
20021;BME280;10171;42.694;23.318;2022-07-30T00:51:18;95043.84;;;25.43;nan
20021;BME280;10171;42.694;23.318;2022-07-30T00:53:44;95057.56;;;25.45;nan
20021;BME280;10171;42.694;23.318;2022-07-30T00:56:09;95054.56;;;25.48;nan
20021;BME280;10171;42.694;23.318;2022-07-30T00:58:35;95045.69;;;25.49;nan
20021;BME280;10171;42.694;23.318;2022-07-30T01:01:00;95044.94;;;25.55;nan
20021;BME280;10171;42.694;23.318;2022-07-30T01:03:26;95040.69;;;25.54;nan
20021;BME280;10171;42.694;23.318;2022-07-30T01:05:51;95050.56;;;25.59;nan
20021;BME280;10171;42.694;23.318;2022-07-30T01:08:17;95051.41;;;25.59;nan
20021;BME280;10171;42.694;23.318;2022-07-30T01:10:42;95047.56;;;25.55;nan
20021;BME280;10171;42.694;23.318;2022-07-30T01:13:08;95047.88;;;25.46;nan
20021;BME280;10171;42.694;23.318;2022-07-30T01:15:34;95039.41;;;25.44;nan
20021;BME280;10171;42.694;23.318;2022-07-30T01:18:02;95044.53;;;25.24;nan
20021;BME280;10171;42.694;23.318;2022-07-30T01:20:32;95044.72;;;25.23;nan
20021;BME280;10171;42.694;23.318;2022-07-30T01:23:34;95042.28;;;25.21;nan
20021;BME280;10171;42.694;23.318;2022-07-30T01:26:06;95039.31;;;25.24;nan
20021;BME280;10171;42.694;23.318;2022-07-30T01:28:35;95038.84;;;25.21;nan
20021;BME280;10171;42.694;23.318;2022-07-30T01:31:02;95042.09;;;25.23;nan
20021;BME280;10171;42.694;23.318;2022-07-30T01:33:28;95038.25;;;25.19;nan
20021;BME280;10171;42.694;23.318;2022-07-30T01:35:56;95033.56;;;25.14;nan
20021;BME280;10171;42.694;23.318;2022-07-30T01:38:23;95042.41;;;25.13;nan
20021;BME280;10171;42.694;23.318;2022-07-30T01:40:50;95041.84;;;25.18;nan
20021;BME280;10171;42.694;23.318;2022-07-30T01:43:18;95040.78;;;25.13;nan
20021;BME280;10171;42.694;23.318;2022-07-30T01:45:45;95036.84;;;25.17;nan
20021;BME280;10171;42.694;23.318;2022-07-30T01:48:12;95046.63;;;25.14;nan
20021;BME280;10171;42.694;23.318;2022-07-30T01:50:42;95042.78;;;25.11;nan
20021;BME280;10171;42.694;23.318;2022-07-30T01:53:08;95035.25;;;25.01;nan
20021;BME280;10171;42.694;23.318;2022-07-30T01:55:36;95056.25;;;25.08;nan
20021;BME280;10171;42.694;23.318;2022-07-30T01:58:05;95049.41;;;25.07;nan
20021;BME280;10171;42.694;23.318;2022-07-30T02:00:33;95050.91;;;25.16;nan
20021;BME280;10171;42.694;23.318;2022-07-30T02:03:00;95054.63;;;25.07;nan
20021;BME280;10171;42.694;23.318;2022-07-30T02:05:27;95056.00;;;25.03;nan
20021;BME280;10171;42.694;23.318;2022-07-30T02:08:02;95047.72;;;24.99;nan
20021;BME280;10171;42.694;23.318;2022-07-30T02:10:50;95052.78;;;25.01;nan
20021;BME280;10171;42.694;23.318;2022-07-30T02:13:19;95053.56;;;25.01;nan
20021;BME280;10171;42.694;23.318;2022-07-30T02:15:55;95047.72;;;24.99;nan
20021;BME280;10171;42.694;23.318;2022-07-30T02:18:36;95043.72;;;25.03;nan
20021;BME280;10171;42.694;23.318;2022-07-30T02:21:06;95042.06;;;24.96;nan
20021;BME280;10171;42.694;23.318;2022-07-30T02:23:37;95034.97;;;24.90;nan
20021;BME280;10171;42.694;23.318;2022-07-30T02:26:04;95034.38;;;24.88;nan
20021;BME280;10171;42.694;23.318;2022-07-30T02:28:36;95036.78;;;24.89;nan
20021;BME280;10171;42.694;23.318;2022-07-30T02:31:03;95028.88;;;24.83;nan
20021;BME280;10171;42.694;23.318;2022-07-30T02:33:32;95034.75;;;24.85;nan
20021;BME280;10171;42.694;23.318;2022-07-30T02:35:59;95038.47;;;24.76;nan
20021;BME280;10171;42.694;23.318;2022-07-30T02:38:27;95035.63;;;24.71;nan
20021;BME280;10171;42.694;23.318;2022-07-30T02:40:54;95030.69;;;24.61;nan
20021;BME280;10171;42.694;23.318;2022-07-30T02:43:23;95029.91;;;24.61;nan
20021;BME280;10171;42.694;23.318;2022-07-30T02:45:51;95039.16;;;24.63;nan
20021;BME280;10171;42.694;23.318;2022-07-30T02:48:19;95022.44;;;24.58;nan
20021;BME280;10171;42.694;23.318;2022-07-30T02:50:48;95034.75;;;24.64;nan
20021;BME280;10171;42.694;23.318;2022-07-30T02:53:17;95037.00;;;24.67;nan
20021;BME280;10171;42.694;23.318;2022-07-30T02:55:44;95019.06;;;24.64;nan
20021;BME280;10171;42.694;23.318;2022-07-30T02:58:15;95023.94;;;24.67;nan
20021;BME280;10171;42.694;23.318;2022-07-30T03:00:41;95021.06;;;24.62;nan
20021;BME280;10171;42.694;23.318;2022-07-30T03:03:07;95024.34;;;24.70;nan
20021;BME280;10171;42.694;23.318;2022-07-30T03:05:35;95027.47;;;24.59;nan
20021;BME280;10171;42.694;23.318;2022-07-30T03:08:01;95026.22;;;24.55;nan
20021;BME280;10171;42.694;23.318;2022-07-30T03:10:27;95019.75;;;24.51;nan
20021;BME280;10171;42.694;23.318;2022-07-30T03:12:55;95013.59;;;24.59;nan
20021;BME280;10171;42.694;23.318;2022-07-30T03:15:20;95007.22;;;24.47;nan
20021;BME280;10171;42.694;23.318;2022-07-30T03:17:50;95016.50;;;24.49;nan
20021;BME280;10171;42.694;23.318;2022-07-30T03:20:19;95003.53;;;24.56;nan
20021;BME280;10171;42.694;23.318;2022-07-30T03:22:50;95012.03;;;24.64;nan
20021;BME280;10171;42.694;23.318;2022-07-30T03:25:21;95012.66;;;24.66;nan
20021;BME280;10171;42.694;23.318;2022-07-30T03:27:47;95019.94;;;24.71;nan
20021;BME280;10171;42.694;23.318;2022-07-30T03:30:14;95028.03;;;24.76;nan
20021;BME280;10171;42.694;23.318;2022-07-30T03:32:41;95024.22;;;24.78;nan
20021;BME280;10171;42.694;23.318;2022-07-30T03:35:07;95023.03;;;24.81;nan
20021;BME280;10171;42.694;23.318;2022-07-30T03:37:36;95032.88;;;24.79;nan
20021;BME280;10171;42.694;23.318;2022-07-30T03:40:03;95030.41;;;24.71;nan
20021;BME280;10171;42.694;23.318;2022-07-30T03:42:30;95031.56;;;24.68;nan
20021;BME280;10171;42.694;23.318;2022-07-30T03:44:56;95038.78;;;24.66;nan
20021;BME280;10171;42.694;23.318;2022-07-30T03:47:23;95036.91;;;24.60;nan
20021;BME280;10171;42.694;23.318;2022-07-30T03:49:49;95031.03;;;24.52;nan
20021;BME280;10171;42.694;23.318;2022-07-30T03:52:15;95036.66;;;24.55;nan
20021;BME280;10171;42.694;23.318;2022-07-30T03:54:41;95036.75;;;24.62;nan
20021;BME280;10171;42.694;23.318;2022-07-30T03:57:07;95036.50;;;24.57;nan
20021;BME280;10171;42.694;23.318;2022-07-30T03:59:32;95042.97;;;24.61;nan
20021;BME280;10171;42.694;23.318;2022-07-30T04:01:59;95041.72;;;24.57;nan
20021;BME280;10171;42.694;23.318;2022-07-30T04:04:26;95040.91;;;24.56;nan
20021;BME280;10171;42.694;23.318;2022-07-30T04:06:52;95042.09;;;24.54;nan
20021;BME280;10171;42.694;23.318;2022-07-30T04:09:17;95044.25;;;24.50;nan
20021;BME280;10171;42.694;23.318;2022-07-30T04:11:43;95043.81;;;24.47;nan
20021;BME280;10171;42.694;23.318;2022-07-30T04:14:09;95047.78;;;24.43;nan
20021;BME280;10171;42.694;23.318;2022-07-30T04:16:43;95049.31;;;24.37;nan
20021;BME280;10171;42.694;23.318;2022-07-30T04:19:37;95046.81;;;24.29;nan
20021;BME280;10171;42.694;23.318;2022-07-30T04:22:04;95051.97;;;24.23;nan
20021;BME280;10171;42.694;23.318;2022-07-30T04:24:31;95050.78;;;24.25;nan
20021;BME280;10171;42.694;23.318;2022-07-30T04:26:59;95051.88;;;24.31;nan
20021;BME280;10171;42.694;23.318;2022-07-30T04:29:24;95051.97;;;24.23;nan
20021;BME280;10171;42.694;23.318;2022-07-30T04:31:52;95053.34;;;24.19;nan
20021;BME280;10171;42.694;23.318;2022-07-30T04:34:19;95048.78;;;24.06;nan
20021;BME280;10171;42.694;23.318;2022-07-30T04:36:44;95052.47;;;24.12;nan
20021;BME280;10171;42.694;23.318;2022-07-30T04:39:11;95060.81;;;24.22;nan
20021;BME280;10171;42.694;23.318;2022-07-30T04:41:37;95051.91;;;24.16;nan
20021;BME280;10171;42.694;23.318;2022-07-30T04:44:03;95061.66;;;24.08;nan
20021;BME280;10171;42.694;23.318;2022-07-30T04:46:28;95064.88;;;24.10;nan
20021;BME280;10171;42.694;23.318;2022-07-30T04:48:54;95059.41;;;24.05;nan
20021;BME280;10171;42.694;23.318;2022-07-30T04:51:25;95076.06;;;24.04;nan
20021;BME280;10171;42.694;23.318;2022-07-30T04:53:53;95060.03;;;24.07;nan
20021;BME280;10171;42.694;23.318;2022-07-30T04:56:20;95064.25;;;24.08;nan
20021;BME280;10171;42.694;23.318;2022-07-30T04:58:47;95053.63;;;24.09;nan
20021;BME280;10171;42.694;23.318;2022-07-30T05:01:22;95049.81;;;23.91;nan
20021;BME280;10171;42.694;23.318;2022-07-30T05:03:50;95053.75;;;23.87;nan
20021;BME280;10171;42.694;23.318;2022-07-30T05:06:16;95050.53;;;23.85;nan
20021;BME280;10171;42.694;23.318;2022-07-30T05:08:43;95044.31;;;23.86;nan
20021;BME280;10171;42.694;23.318;2022-07-30T05:11:12;95054.13;;;23.84;nan
20021;BME280;10171;42.694;23.318;2022-07-30T05:13:46;95057.16;;;23.87;nan
20021;BME280;10171;42.694;23.318;2022-07-30T05:16:16;95045.84;;;23.80;nan
20021;BME280;10171;42.694;23.318;2022-07-30T05:18:41;95046.16;;;23.77;nan
20021;BME280;10171;42.694;23.318;2022-07-30T05:21:07;95050.59;;;23.77;nan
20021;BME280;10171;42.694;23.318;2022-07-30T05:23:33;95054.75;;;23.86;nan
20021;BME280;10171;42.694;23.318;2022-07-30T05:25:59;95056.91;;;23.97;nan
20021;BME280;10171;42.694;23.318;2022-07-30T05:28:25;95053.56;;;23.88;nan
20021;BME280;10171;42.694;23.318;2022-07-30T05:30:53;95052.69;;;23.96;nan
20021;BME280;10171;42.694;23.318;2022-07-30T05:33:20;95057.25;;;23.94;nan
20021;BME280;10171;42.694;23.318;2022-07-30T05:35:46;95052.09;;;24.00;nan
20021;BME280;10171;42.694;23.318;2022-07-30T05:38:12;95043.00;;;24.11;nan
20021;BME280;10171;42.694;23.318;2022-07-30T05:40:37;95056.47;;;24.29;nan
20021;BME280;10171;42.694;23.318;2022-07-30T05:43:03;95051.56;;;24.40;nan
20021;BME280;10171;42.694;23.318;2022-07-30T05:45:28;95053.09;;;24.49;nan
20021;BME280;10171;42.694;23.318;2022-07-30T05:47:54;95054.03;;;24.63;nan
20021;BME280;10171;42.694;23.318;2022-07-30T05:50:20;95042.47;;;24.72;nan
20021;BME280;10171;42.694;23.318;2022-07-30T05:52:45;95051.53;;;24.76;nan
20021;BME280;10171;42.694;23.318;2022-07-30T05:55:11;95050.03;;;24.88;nan
20021;BME280;10171;42.694;23.318;2022-07-30T05:57:36;95055.25;;;25.09;nan
20021;BME280;10171;42.694;23.318;2022-07-30T06:00:05;95049.16;;;25.22;nan
20021;BME280;10171;42.694;23.318;2022-07-30T06:02:31;95049.75;;;25.24;nan
20021;BME280;10171;42.694;23.318;2022-07-30T06:04:57;95038.34;;;25.32;nan
20021;BME280;10171;42.694;23.318;2022-07-30T06:07:22;95051.47;;;25.38;nan
20021;BME280;10171;42.694;23.318;2022-07-30T06:09:48;95053.50;;;25.43;nan
20021;BME280;10171;42.694;23.318;2022-07-30T06:12:13;95058.16;;;25.47;nan
20021;BME280;10171;42.694;23.318;2022-07-30T06:14:38;95060.00;;;25.53;nan
20021;BME280;10171;42.694;23.318;2022-07-30T06:17:04;95055.63;;;25.60;nan
20021;BME280;10171;42.694;23.318;2022-07-30T06:19:29;95058.50;;;25.72;nan
20021;BME280;10171;42.694;23.318;2022-07-30T06:21:55;95056.53;;;25.80;nan
20021;BME280;10171;42.694;23.318;2022-07-30T06:24:20;95058.44;;;25.93;nan
20021;BME280;10171;42.694;23.318;2022-07-30T06:26:45;95062.31;;;26.03;nan
20021;BME280;10171;42.694;23.318;2022-07-30T06:29:11;95051.47;;;26.06;nan
20021;BME280;10171;42.694;23.318;2022-07-30T06:31:36;95048.84;;;26.13;nan
20021;BME280;10171;42.694;23.318;2022-07-30T06:34:04;95040.59;;;26.16;nan
20021;BME280;10171;42.694;23.318;2022-07-30T06:36:29;95052.50;;;26.18;nan
20021;BME280;10171;42.694;23.318;2022-07-30T06:38:55;95049.50;;;26.28;nan
20021;BME280;10171;42.694;23.318;2022-07-30T06:41:20;95037.84;;;26.37;nan
20021;BME280;10171;42.694;23.318;2022-07-30T06:43:46;95043.13;;;26.50;nan
20021;BME280;10171;42.694;23.318;2022-07-30T06:46:11;95029.25;;;26.49;nan
20021;BME280;10171;42.694;23.318;2022-07-30T06:48:36;95028.56;;;26.34;nan
20021;BME280;10171;42.694;23.318;2022-07-30T06:51:02;95023.41;;;26.47;nan
20021;BME280;10171;42.694;23.318;2022-07-30T06:53:27;95026.44;;;26.63;nan
20021;BME280;10171;42.694;23.318;2022-07-30T06:55:53;95022.63;;;26.66;nan
20021;BME280;10171;42.694;23.318;2022-07-30T06:58:18;95027.28;;;26.77;nan
20021;BME280;10171;42.694;23.318;2022-07-30T07:00:44;95020.00;;;26.85;nan
20021;BME280;10171;42.694;23.318;2022-07-30T07:03:10;95012.31;;;26.77;nan
20021;BME280;10171;42.694;23.318;2022-07-30T07:05:36;95014.78;;;26.79;nan
20021;BME280;10171;42.694;23.318;2022-07-30T07:08:01;95006.09;;;26.78;nan
20021;BME280;10171;42.694;23.318;2022-07-30T07:10:27;95005.28;;;26.91;nan
20021;BME280;10171;42.694;23.318;2022-07-30T07:12:53;95003.84;;;27.01;nan
20021;BME280;10171;42.694;23.318;2022-07-30T07:15:19;95004.91;;;27.07;nan
20021;BME280;10171;42.694;23.318;2022-07-30T07:17:45;95007.31;;;27.15;nan
20021;BME280;10171;42.694;23.318;2022-07-30T07:20:10;94994.19;;;27.21;nan
20021;BME280;10171;42.694;23.318;2022-07-30T07:22:36;94998.63;;;27.21;nan
20021;BME280;10171;42.694;23.318;2022-07-30T07:25:02;94997.59;;;27.35;nan
20021;BME280;10171;42.694;23.318;2022-07-30T07:27:27;95000.63;;;27.32;nan
20021;BME280;10171;42.694;23.318;2022-07-30T07:29:52;95000.22;;;27.28;nan
20021;BME280;10171;42.694;23.318;2022-07-30T07:32:18;95008.91;;;27.42;nan
20021;BME280;10171;42.694;23.318;2022-07-30T07:34:43;95006.44;;;27.53;nan
20021;BME280;10171;42.694;23.318;2022-07-30T07:37:09;95002.78;;;27.61;nan
20021;BME280;10171;42.694;23.318;2022-07-30T07:39:34;94998.75;;;27.58;nan
20021;BME280;10171;42.694;23.318;2022-07-30T07:42:00;94995.09;;;27.66;nan
20021;BME280;10171;42.694;23.318;2022-07-30T07:44:25;94995.28;;;27.77;nan
20021;BME280;10171;42.694;23.318;2022-07-30T07:46:50;94995.47;;;27.89;nan
20021;BME280;10171;42.694;23.318;2022-07-30T07:49:16;94990.97;;;27.95;nan
20021;BME280;10171;42.694;23.318;2022-07-30T07:51:41;95002.63;;;28.06;nan
20021;BME280;10171;42.694;23.318;2022-07-30T07:54:07;94994.16;;;28.10;nan
20021;BME280;10171;42.694;23.318;2022-07-30T07:56:32;95000.59;;;28.08;nan
20021;BME280;10171;42.694;23.318;2022-07-30T07:58:57;94993.31;;;28.16;nan
20021;BME280;10171;42.694;23.318;2022-07-30T08:01:23;94986.78;;;28.32;nan
20021;BME280;10171;42.694;23.318;2022-07-30T08:03:48;94984.31;;;28.37;nan
20021;BME280;10171;42.694;23.318;2022-07-30T08:06:14;94992.53;;;28.47;nan
20021;BME280;10171;42.694;23.318;2022-07-30T08:08:39;94995.72;;;28.55;nan
20021;BME280;10171;42.694;23.318;2022-07-30T08:11:05;94990.00;;;28.65;nan
20021;BME280;10171;42.694;23.318;2022-07-30T08:13:31;94987.84;;;28.55;nan
20021;BME280;10171;42.694;23.318;2022-07-30T08:15:58;94990.38;;;28.68;nan
20021;BME280;10171;42.694;23.318;2022-07-30T08:18:23;94988.78;;;28.67;nan
20021;BME280;10171;42.694;23.318;2022-07-30T08:20:48;94984.88;;;28.76;nan
20021;BME280;10171;42.694;23.318;2022-07-30T08:23:15;94985.66;;;28.77;nan
20021;BME280;10171;42.694;23.318;2022-07-30T08:25:42;94977.50;;;28.85;nan
20021;BME280;10171;42.694;23.318;2022-07-30T08:28:07;94978.72;;;28.89;nan
20021;BME280;10171;42.694;23.318;2022-07-30T08:30:33;94980.06;;;28.98;nan
20021;BME280;10171;42.694;23.318;2022-07-30T08:32:58;94980.22;;;29.03;nan
20021;BME280;10171;42.694;23.318;2022-07-30T08:35:24;94978.13;;;29.11;nan
20021;BME280;10171;42.694;23.318;2022-07-30T08:37:49;94974.50;;;29.06;nan
20021;BME280;10171;42.694;23.318;2022-07-30T08:40:17;94980.00;;;29.04;nan
20021;BME280;10171;42.694;23.318;2022-07-30T08:42:43;94970.72;;;29.02;nan
20021;BME280;10171;42.694;23.318;2022-07-30T08:45:11;94972.47;;;29.08;nan
20021;BME280;10171;42.694;23.318;2022-07-30T08:47:39;94960.06;;;29.15;nan
20021;BME280;10171;42.694;23.318;2022-07-30T08:50:07;94960.16;;;29.26;nan
20021;BME280;10171;42.694;23.318;2022-07-30T08:52:35;94963.69;;;29.38;nan
20021;BME280;10171;42.694;23.318;2022-07-30T08:55:01;94959.00;;;29.40;nan
20021;BME280;10171;42.694;23.318;2022-07-30T08:57:29;94949.81;;;29.49;nan
20021;BME280;10171;42.694;23.318;2022-07-30T08:59:58;94954.66;;;29.52;nan
20021;BME280;10171;42.694;23.318;2022-07-30T09:02:25;94952.91;;;29.64;nan
20021;BME280;10171;42.694;23.318;2022-07-30T09:04:50;94947.78;;;29.69;nan
20021;BME280;10171;42.694;23.318;2022-07-30T09:07:16;94942.19;;;29.77;nan
20021;BME280;10171;42.694;23.318;2022-07-30T09:09:41;94935.63;;;29.68;nan
20021;BME280;10171;42.694;23.318;2022-07-30T09:15:06;94932.91;;;29.74;nan
20021;BME280;10171;42.694;23.318;2022-07-30T09:17:56;94927.41;;;29.94;nan
20021;BME280;10171;42.694;23.318;2022-07-30T09:20:25;94918.06;;;30.09;nan
20021;BME280;10171;42.694;23.318;2022-07-30T09:22:55;94921.22;;;30.29;nan
20021;BME280;10171;42.694;23.318;2022-07-30T09:25:37;94922.53;;;30.38;nan
20021;BME280;10171;42.694;23.318;2022-07-30T09:28:04;94918.06;;;30.50;nan
20021;BME280;10171;42.694;23.318;2022-07-30T09:30:51;94915.63;;;30.37;nan
20021;BME280;10171;42.694;23.318;2022-07-30T09:33:50;94905.41;;;30.59;nan
20021;BME280;10171;42.694;23.318;2022-07-30T09:36:17;94914.59;;;30.79;nan
20021;BME280;10171;42.694;23.318;2022-07-30T09:39:00;94910.25;;;31.07;nan
20021;BME280;10171;42.694;23.318;2022-07-30T09:41:34;94912.34;;;31.28;nan
20021;BME280;10171;42.694;23.318;2022-07-30T09:44:02;94909.56;;;31.46;nan
20021;BME280;10171;42.694;23.318;2022-07-30T09:46:46;94910.09;;;31.71;nan
20021;BME280;10171;42.694;23.318;2022-07-30T09:49:16;94903.81;;;31.89;nan
20021;BME280;10171;42.694;23.318;2022-07-30T09:51:43;94896.16;;;32.04;nan
20021;BME280;10171;42.694;23.318;2022-07-30T09:54:09;94896.91;;;32.27;nan
20021;BME280;10171;42.694;23.318;2022-07-30T09:56:34;94892.66;;;32.42;nan
20021;BME280;10171;42.694;23.318;2022-07-30T09:59:00;94884.41;;;32.55;nan
20021;BME280;10171;42.694;23.318;2022-07-30T10:01:25;94893.38;;;32.66;nan
20021;BME280;10171;42.694;23.318;2022-07-30T10:03:52;94891.66;;;32.76;nan
20021;BME280;10171;42.694;23.318;2022-07-30T10:06:18;94874.03;;;32.82;nan
20021;BME280;10171;42.694;23.318;2022-07-30T10:08:48;94878.81;;;33.01;nan
20021;BME280;10171;42.694;23.318;2022-07-30T10:11:16;94885.72;;;33.19;nan
20021;BME280;10171;42.694;23.318;2022-07-30T10:13:43;94863.06;;;33.28;nan
20021;BME280;10171;42.694;23.318;2022-07-30T10:16:09;94870.66;;;33.41;nan
20021;BME280;10171;42.694;23.318;2022-07-30T10:18:34;94866.53;;;33.12;nan
20021;BME280;10171;42.694;23.318;2022-07-30T10:21:01;94864.53;;;33.19;nan
20021;BME280;10171;42.694;23.318;2022-07-30T10:23:28;94868.03;;;33.24;nan
20021;BME280;10171;42.694;23.318;2022-07-30T10:25:55;94858.66;;;33.38;nan
20021;BME280;10171;42.694;23.318;2022-07-30T10:28:24;94855.41;;;33.53;nan
20021;BME280;10171;42.694;23.318;2022-07-30T10:30:51;94844.88;;;33.57;nan
20021;BME280;10171;42.694;23.318;2022-07-30T10:33:23;94850.69;;;33.54;nan
20021;BME280;10171;42.694;23.318;2022-07-30T10:35:49;94833.94;;;33.70;nan
20021;BME280;10171;42.694;23.318;2022-07-30T10:38:15;94830.88;;;33.83;nan
20021;BME280;10171;42.694;23.318;2022-07-30T10:41:04;94842.34;;;33.46;nan
20021;BME280;10171;42.694;23.318;2022-07-30T10:43:54;94839.25;;;33.54;nan
20021;BME280;10171;42.694;23.318;2022-07-30T10:48:53;94830.94;;;33.88;nan
20021;BME280;10171;42.694;23.318;2022-07-30T10:51:21;94826.56;;;34.04;nan
20021;BME280;10171;42.694;23.318;2022-07-30T10:53:46;94822.09;;;34.04;nan
20021;BME280;10171;42.694;23.318;2022-07-30T10:59:09;94819.34;;;34.21;nan
20021;BME280;10171;42.694;23.318;2022-07-30T11:04:26;94814.88;;;34.26;nan
20021;BME280;10171;42.694;23.318;2022-07-30T11:09:47;94804.28;;;34.63;nan
20021;BME280;10171;42.694;23.318;2022-07-30T11:12:13;94808.41;;;34.80;nan
20021;BME280;10171;42.694;23.318;2022-07-30T11:17:12;94799.31;;;34.71;nan
20021;BME280;10171;42.694;23.318;2022-07-30T11:22:32;94792.94;;;34.67;nan
20021;BME280;10171;42.694;23.318;2022-07-30T11:25:09;94789.25;;;34.73;nan
20021;BME280;10171;42.694;23.318;2022-07-30T11:27:54;94790.81;;;34.69;nan
20021;BME280;10171;42.694;23.318;2022-07-30T11:32:46;94788.44;;;34.73;nan
20021;BME280;10171;42.694;23.318;2022-07-30T11:35:24;94785.38;;;34.54;nan
20021;BME280;10171;42.694;23.318;2022-07-30T11:38:12;94778.63;;;34.73;nan
20021;BME280;10171;42.694;23.318;2022-07-30T11:43:24;94772.09;;;34.95;nan
20021;BME280;10171;42.694;23.318;2022-07-30T11:45:51;94765.84;;;35.16;nan
20021;BME280;10171;42.694;23.318;2022-07-30T11:48:18;94767.19;;;35.14;nan
20021;BME280;10171;42.694;23.318;2022-07-30T11:50:45;94758.88;;;34.59;nan
20021;BME280;10171;42.694;23.318;2022-07-30T11:53:19;94754.41;;;34.28;nan
20021;BME280;10171;42.694;23.318;2022-07-30T11:55:51;94749.38;;;34.32;nan
20021;BME280;10171;42.694;23.318;2022-07-30T12:00:53;94734.03;;;34.75;nan
20021;BME280;10171;42.694;23.318;2022-07-30T12:03:20;94736.97;;;34.79;nan
20021;BME280;10171;42.694;23.318;2022-07-30T12:05:46;94734.59;;;34.46;nan
20021;BME280;10171;42.694;23.318;2022-07-30T12:08:13;94732.81;;;34.51;nan
20021;BME280;10171;42.694;23.318;2022-07-30T12:10:41;94734.53;;;34.67;nan
20021;BME280;10171;42.694;23.318;2022-07-30T12:13:15;94727.56;;;34.61;nan
20021;BME280;10171;42.694;23.318;2022-07-30T12:15:46;94729.38;;;34.56;nan
20021;BME280;10171;42.694;23.318;2022-07-30T12:18:11;94734.31;;;34.79;nan
20021;BME280;10171;42.694;23.318;2022-07-30T12:20:40;94728.94;;;35.20;nan
20021;BME280;10171;42.694;23.318;2022-07-30T12:23:10;94722.66;;;35.46;nan
20021;BME280;10171;42.694;23.318;2022-07-30T12:25:42;94709.41;;;35.61;nan
20021;BME280;10171;42.694;23.318;2022-07-30T12:28:09;94703.03;;;35.62;nan
20021;BME280;10171;42.694;23.318;2022-07-30T12:30:38;94703.03;;;35.62;nan
20021;BME280;10171;42.694;23.318;2022-07-30T12:33:05;94694.25;;;35.76;nan
20021;BME280;10171;42.694;23.318;2022-07-30T12:38:13;94684.69;;;35.95;nan
20021;BME280;10171;42.694;23.318;2022-07-30T12:40:59;94678.59;;;36.15;nan
20021;BME280;10171;42.694;23.318;2022-07-30T12:51:19;94661.03;;;36.19;nan
20021;BME280;10171;42.694;23.318;2022-07-30T12:53:45;94649.88;;;36.07;nan
20021;BME280;10171;42.694;23.318;2022-07-30T12:56:15;94645.59;;;36.01;nan
20021;BME280;10171;42.694;23.318;2022-07-30T12:58:41;94643.72;;;35.96;nan
20021;BME280;10171;42.694;23.318;2022-07-30T13:01:08;94641.59;;;35.93;nan
20021;BME280;10171;42.694;23.318;2022-07-30T13:03:34;94633.38;;;35.90;nan
20021;BME280;10171;42.694;23.318;2022-07-30T13:06:19;94640.28;;;36.06;nan
20021;BME280;10171;42.694;23.318;2022-07-30T13:08:55;94642.66;;;35.92;nan
20021;BME280;10171;42.694;23.318;2022-07-30T13:11:23;94623.25;;;35.87;nan
20021;BME280;10171;42.694;23.318;2022-07-30T13:13:50;94635.19;;;35.99;nan
20021;BME280;10171;42.694;23.318;2022-07-30T13:16:16;94624.84;;;36.13;nan
20021;BME280;10171;42.694;23.318;2022-07-30T13:18:43;94621.38;;;36.12;nan
20021;BME280;10171;42.694;23.318;2022-07-30T13:21:08;94620.31;;;36.08;nan
20021;BME280;10171;42.694;23.318;2022-07-30T13:23:35;94620.84;;;35.70;nan
20021;BME280;10171;42.694;23.318;2022-07-30T13:26:01;94625.94;;;35.67;nan
20021;BME280;10171;42.694;23.318;2022-07-30T13:28:27;94622.19;;;35.58;nan
20021;BME280;10171;42.694;23.318;2022-07-30T13:30:54;94620.06;;;35.65;nan
20021;BME280;10171;42.694;23.318;2022-07-30T13:33:20;94615.00;;;35.58;nan
20021;BME280;10171;42.694;23.318;2022-07-30T13:35:46;94625.59;;;35.53;nan
20021;BME280;10171;42.694;23.318;2022-07-30T13:38:12;94622.44;;;35.76;nan
20021;BME280;10171;42.694;23.318;2022-07-30T13:40:38;94625.88;;;35.52;nan
20021;BME280;10171;42.694;23.318;2022-07-30T13:43:04;94629.78;;;35.09;nan
20021;BME280;10171;42.694;23.318;2022-07-30T13:45:29;94638.50;;;34.90;nan
20021;BME280;10171;42.694;23.318;2022-07-30T13:47:55;94637.59;;;34.65;nan
20021;BME280;10171;42.694;23.318;2022-07-30T13:50:21;94632.47;;;34.53;nan